createdAt,value
2019-05-25T00:01:18.380Z,94618.77
2019-05-25T00:03:45.070Z,94628.16
2019-05-25T00:06:11.772Z,94622.48
2019-05-25T00:08:38.660Z,94617.78
2019-05-25T00:11:05.335Z,94617.35
2019-05-25T00:13:32.101Z,94612.12
2019-05-25T00:15:58.923Z,94613.71
2019-05-25T00:18:25.616Z,94614.64
2019-05-25T00:20:52.291Z,94615.45
2019-05-25T00:23:19.077Z,94618.42
2019-05-25T00:25:45.843Z,94617.86
2019-05-25T00:28:12.502Z,94607.42
2019-05-25T00:30:39.439Z,94617.00
2019-05-25T00:33:06.218Z,94616.57
2019-05-25T00:35:33.235Z,94615.84
2019-05-25T00:38:00.151Z,94616.08
2019-05-25T00:40:26.930Z,94624.27
2019-05-25T00:42:53.707Z,94621.08
2019-05-25T00:45:20.773Z,94625.59
2019-05-25T00:47:47.456Z,94622.88
2019-05-25T00:50:14.153Z,94632.20
2019-05-25T00:52:44.147Z,94625.87
2019-05-25T00:55:11.124Z,94620.63
2019-05-25T00:57:39.002Z,94621.86
2019-05-25T01:00:06.645Z,94619.14
2019-05-25T01:02:34.211Z,94623.12
2019-05-25T01:05:00.903Z,94616.48
2019-05-25T01:07:28.959Z,94620.27
2019-05-25T01:09:55.747Z,94620.99
2019-05-25T01:12:22.419Z,94623.52
2019-05-25T01:14:49.165Z,94625.77
2019-05-25T01:17:15.833Z,94626.06
2019-05-25T01:19:42.511Z,94632.73
2019-05-25T01:22:09.303Z,94632.80
2019-05-25T01:24:44.202Z,94625.41
2019-05-25T01:27:04.578Z,94633.56
2019-05-25T01:29:31.343Z,94630.52
2019-05-25T01:31:58.010Z,94631.03
2019-05-25T01:34:24.756Z,94629.48
2019-05-25T01:36:51.521Z,94633.30
2019-05-25T01:39:19.337Z,94637.50
2019-05-25T01:41:46.012Z,94628.29
2019-05-25T01:44:12.745Z,94634.29
2019-05-25T01:46:39.442Z,94628.22
2019-05-25T01:49:06.287Z,94622.02
2019-05-25T01:51:33.045Z,94629.65
2019-05-25T01:53:59.777Z,94626.30
2019-05-25T01:56:26.562Z,94630.77
2019-05-25T01:58:53.386Z,94628.29
2019-05-25T02:01:20.054Z,94632.66
2019-05-25T02:03:46.841Z,94630.41
2019-05-25T02:06:13.736Z,94630.52
2019-05-25T02:08:40.525Z,94619.90
2019-05-25T02:11:07.193Z,94617.67
2019-05-25T02:13:33.947Z,94622.72
2019-05-25T02:16:00.648Z,94630.28
2019-05-25T02:18:27.463Z,94625.89
2019-05-25T02:20:54.179Z,94627.30
2019-05-25T02:23:20.890Z,94622.13
2019-05-25T02:25:47.946Z,94633.86
2019-05-25T02:28:14.675Z,94640.09
2019-05-25T02:30:41.360Z,94633.06
2019-05-25T02:33:08.123Z,94633.19
2019-05-25T02:35:35.880Z,94630.14
2019-05-25T02:38:02.717Z,94640.22
2019-05-25T02:40:29.448Z,94638.30
2019-05-25T02:42:56.334Z,94632.61
2019-05-25T02:45:23.300Z,94646.27
2019-05-25T02:47:50.142Z,94640.23
2019-05-25T02:50:17.112Z,94655.19
2019-05-25T02:52:43.842Z,94647.56
2019-05-25T02:55:11.448Z,94647.62
2019-05-25T02:57:38.234Z,94652.82
2019-05-25T03:00:08.765Z,94654.98
2019-05-25T03:02:35.537Z,94654.92
2019-05-25T03:05:08.547Z,94663.27
2019-05-25T03:07:37.611Z,94665.85
2019-05-25T03:10:06.110Z,94672.40
2019-05-25T03:12:32.963Z,94675.68
2019-05-25T03:14:59.663Z,94666.37
2019-05-25T03:17:26.423Z,94668.59
2019-05-25T03:19:53.376Z,94671.10
2019-05-25T03:22:20.115Z,94676.18
2019-05-25T03:24:46.895Z,94671.61
2019-05-25T03:27:13.642Z,94669.51
2019-05-25T03:29:40.481Z,94661.97
2019-05-25T03:32:07.252Z,94658.89
2019-05-25T03:34:34.003Z,94665.94
2019-05-25T03:37:00.700Z,94674.55
2019-05-25T03:39:27.372Z,94676.80
2019-05-25T03:41:54.207Z,94674.07
2019-05-25T03:44:21.345Z,94679.76
2019-05-25T03:46:48.142Z,94677.66
2019-05-25T03:49:14.875Z,94677.25
2019-05-25T03:51:42.616Z,94686.13
2019-05-25T03:54:09.297Z,94678.96
2019-05-25T03:56:36.072Z,94684.70
2019-05-25T03:59:03.043Z,94685.70
2019-05-25T04:01:29.823Z,94693.11
2019-05-25T04:03:56.586Z,94690.16
2019-05-25T04:06:23.425Z,94686.73
2019-05-25T04:08:50.288Z,94684.22
2019-05-25T04:11:17.149Z,94688.33
2019-05-25T04:13:44.086Z,94692.23
2019-05-25T04:16:10.760Z,94697.47
2019-05-25T04:18:37.540Z,94688.41
2019-05-25T04:21:04.321Z,94693.18
2019-05-25T04:23:31.234Z,94692.61
2019-05-25T04:25:58.205Z,94702.20
2019-05-25T04:28:24.904Z,94699.36
2019-05-25T04:30:51.672Z,94704.05
2019-05-25T04:33:18.508Z,94707.58
2019-05-25T04:35:45.223Z,94699.02
2019-05-25T04:38:12.086Z,94706.21
2019-05-25T04:40:39.123Z,94704.23
2019-05-25T04:43:05.910Z,94701.73
2019-05-25T04:45:32.863Z,94709.53
2019-05-25T04:47:59.600Z,94707.31
2019-05-25T04:50:26.361Z,94711.73
2019-05-25T04:52:53.067Z,94715.34
2019-05-25T04:55:21.119Z,94714.23
2019-05-25T04:57:47.803Z,94713.81
2019-05-25T05:00:14.821Z,94713.65
2019-05-25T05:02:41.606Z,94719.96
2019-05-25T05:05:08.469Z,94712.92
2019-05-25T05:07:35.158Z,94712.32
2019-05-25T05:10:07.502Z,94716.49
2019-05-25T05:12:34.254Z,94720.92
2019-05-25T05:15:00.952Z,94720.83
2019-05-25T05:17:27.784Z,94713.59
2019-05-25T05:19:54.502Z,94723.89
2019-05-25T05:22:21.267Z,94722.09
2019-05-25T05:24:48.343Z,94724.99
2019-05-25T05:27:15.084Z,94735.06
2019-05-25T05:29:41.776Z,94731.56
2019-05-25T05:32:08.754Z,94722.77
2019-05-25T05:34:35.513Z,94734.94
2019-05-25T05:37:02.838Z,94726.36
2019-05-25T05:39:30.748Z,94728.02
2019-05-25T05:41:59.362Z,94728.41
2019-05-25T05:44:27.137Z,94727.91
2019-05-25T05:46:56.297Z,94730.57
2019-05-25T05:49:23.833Z,94726.47
2019-05-25T05:51:53.261Z,94734.03
2019-05-25T05:54:20.472Z,94730.10
2019-05-25T05:56:47.830Z,94726.12
2019-05-25T05:59:14.554Z,94730.50
2019-05-25T06:01:41.305Z,94729.95
2019-05-25T06:04:08.096Z,94735.41
2019-05-25T06:06:34.848Z,94733.27
2019-05-25T06:09:01.660Z,94733.86
2019-05-25T06:11:28.554Z,94739.66
2019-05-25T06:13:55.336Z,94739.20
2019-05-25T06:16:22.083Z,94744.67
2019-05-25T06:18:48.846Z,94741.33
2019-05-25T06:21:15.757Z,94745.53
2019-05-25T06:23:42.571Z,94742.37
2019-05-25T06:26:09.261Z,94742.22
2019-05-25T06:28:36.020Z,94736.84
2019-05-25T06:31:02.892Z,94744.95
2019-05-25T06:33:29.713Z,94745.60
2019-05-25T06:35:56.643Z,94736.15
2019-05-25T06:38:23.407Z,94741.41
2019-05-25T06:40:50.208Z,94733.13
2019-05-25T06:43:17.180Z,94727.63
2019-05-25T06:45:43.962Z,94734.78
2019-05-25T06:48:10.706Z,94737.26
2019-05-25T06:50:37.403Z,94741.31
2019-05-25T06:53:04.327Z,94735.83
2019-05-25T06:55:31.010Z,94742.09
2019-05-25T06:57:57.792Z,94747.86
2019-05-25T07:00:24.911Z,94743.80
2019-05-25T07:02:51.594Z,94751.38
2019-05-25T07:05:18.407Z,94751.78
2019-05-25T07:07:45.125Z,94746.80
2019-05-25T07:10:12.739Z,94748.12
2019-05-25T07:12:39.431Z,94722.77
2019-05-25T07:15:07.296Z,94722.77
2019-05-25T07:17:33.991Z,94741.67
2019-05-25T07:20:00.705Z,94745.16
2019-05-25T07:22:27.691Z,94746.30
2019-05-25T07:24:54.390Z,94748.94
2019-05-25T07:27:21.143Z,94746.64
2019-05-25T07:29:48.006Z,94744.92
2019-05-25T07:32:14.751Z,94756.16
2019-05-25T07:34:41.686Z,94751.14
2019-05-25T07:37:08.408Z,94746.35
2019-05-25T07:39:35.135Z,94752.02
2019-05-25T07:42:01.946Z,94750.44
2019-05-25T07:44:28.786Z,94754.44
2019-05-25T07:46:55.590Z,94757.86
2019-05-25T07:49:22.328Z,94746.79
2019-05-25T07:51:50.235Z,94754.11
2019-05-25T07:54:17.093Z,94763.70
2019-05-25T07:56:43.866Z,94751.80
2019-05-25T07:59:10.695Z,94763.05
2019-05-25T08:01:37.415Z,94756.09
2019-05-25T08:04:04.339Z,94767.09
2019-05-25T08:06:31.087Z,94757.42
2019-05-25T08:08:58.178Z,94756.48
2019-05-25T08:11:24.914Z,94770.89
2019-05-25T08:13:51.680Z,94751.28
2019-05-25T08:16:18.433Z,94759.50
2019-05-25T08:18:45.119Z,94774.70
2019-05-25T08:21:11.878Z,94778.03
2019-05-25T08:23:38.601Z,94787.22
2019-05-25T08:26:05.504Z,94779.80
2019-05-25T08:28:33.320Z,94777.86
2019-05-25T08:31:01.416Z,94776.72
2019-05-25T08:33:28.482Z,94781.05
2019-05-25T08:35:55.238Z,94782.89
2019-05-25T08:38:21.986Z,94784.84
2019-05-25T08:40:48.797Z,94790.44
2019-05-25T08:43:15.638Z,94785.98
2019-05-25T08:45:42.356Z,94795.81
2019-05-25T08:48:09.122Z,94792.73
2019-05-25T08:50:38.700Z,94785.28
2019-05-25T08:53:04.507Z,94795.91
2019-05-25T08:55:31.359Z,94797.52
2019-05-25T08:57:58.496Z,94803.71
2019-05-25T09:00:25.193Z,94804.25
2019-05-25T09:02:51.927Z,94803.66
2019-05-25T09:05:18.943Z,94807.81
2019-05-25T09:07:45.705Z,94809.28
2019-05-25T09:10:12.891Z,94809.31
2019-05-25T09:12:39.634Z,94813.53
2019-05-25T09:15:07.218Z,94813.53
2019-05-25T09:17:33.903Z,94816.26
2019-05-25T09:20:00.672Z,94812.14
2019-05-25T09:22:27.382Z,94810.06
2019-05-25T09:24:54.108Z,94810.43
2019-05-25T09:27:20.873Z,94815.36
2019-05-25T09:29:47.628Z,94819.34
2019-05-25T09:32:14.336Z,94822.91
2019-05-25T09:34:41.071Z,94817.30
2019-05-25T09:37:07.873Z,94823.72
2019-05-25T09:39:34.649Z,94820.06
2019-05-25T09:42:01.568Z,94826.79
2019-05-25T09:44:28.282Z,94824.50
2019-05-25T09:46:54.961Z,94826.89
2019-05-25T09:49:21.857Z,94819.08
2019-05-25T09:51:48.829Z,94821.09
2019-05-25T09:54:15.570Z,94821.42
2019-05-25T09:56:42.405Z,94812.41
2019-05-25T09:59:19.764Z,94819.64
2019-05-25T10:01:37.840Z,94820.08
2019-05-25T10:04:04.598Z,94820.36
2019-05-25T10:06:31.276Z,94829.93
2019-05-25T10:08:57.998Z,94830.16
2019-05-25T10:11:24.763Z,94825.47
2019-05-25T10:13:51.534Z,94822.70
2019-05-25T10:16:18.311Z,94819.06
2019-05-25T10:18:45.067Z,94811.94
2019-05-25T10:21:14.783Z,94817.13
2019-05-25T10:23:40.445Z,94810.85
2019-05-25T10:26:07.217Z,94812.67
2019-05-25T10:28:33.911Z,94815.31
2019-05-25T10:31:00.939Z,94807.54
2019-05-25T10:33:27.875Z,94816.53
2019-05-25T10:35:54.573Z,94826.66
2019-05-25T10:38:21.409Z,94828.31
2019-05-25T10:40:48.261Z,94820.85
2019-05-25T10:43:15.029Z,94821.44
2019-05-25T10:45:41.718Z,94821.23
2019-05-25T10:48:08.570Z,94804.95
2019-05-25T10:50:35.325Z,94807.52
2019-05-25T10:53:02.177Z,94809.25
2019-05-25T10:55:29.132Z,94809.20
2019-05-25T10:57:55.921Z,94817.45
2019-05-25T11:00:22.927Z,94821.18
2019-05-25T11:02:50.023Z,94814.51
2019-05-25T11:05:17.409Z,94819.53
2019-05-25T11:07:44.130Z,94821.49
2019-05-25T11:10:12.099Z,94824.42
2019-05-25T11:12:38.803Z,94825.40
2019-05-25T11:15:06.483Z,94833.66
2019-05-25T11:17:33.174Z,94840.28
2019-05-25T11:20:01.145Z,94841.91
2019-05-25T11:22:28.018Z,94827.27
2019-05-25T11:24:54.708Z,94828.75
2019-05-25T11:27:21.353Z,94831.56
2019-05-25T11:29:48.198Z,94820.20
2019-05-25T11:32:15.007Z,94816.63
2019-05-25T11:34:41.682Z,94812.30
2019-05-25T11:37:08.498Z,94827.73
2019-05-25T11:39:35.370Z,94835.33
2019-05-25T11:42:02.174Z,94841.40
2019-05-25T11:44:28.999Z,94844.64
2019-05-25T11:46:55.823Z,94857.09
2019-05-25T11:49:23.136Z,94858.44
2019-05-25T11:51:50.127Z,94860.77
2019-05-25T11:54:16.847Z,94873.46
2019-05-25T11:56:43.526Z,94873.95
2019-05-25T11:59:10.309Z,94874.64
2019-05-25T12:01:38.124Z,94877.50
2019-05-25T12:04:04.825Z,94885.56
2019-05-25T12:06:31.659Z,94895.89
2019-05-25T12:08:58.374Z,94902.36
2019-05-25T12:11:25.414Z,94874.98
2019-05-25T12:13:52.276Z,94890.42
2019-05-25T12:16:19.103Z,94895.80
2019-05-25T12:18:46.266Z,94889.63
2019-05-25T12:21:13.162Z,94871.74
2019-05-25T12:23:39.928Z,94886.80
2019-05-25T12:26:06.711Z,94878.45
2019-05-25T12:28:33.495Z,94868.88
2019-05-25T12:31:00.195Z,94850.70
2019-05-25T12:33:26.903Z,94850.70
2019-05-25T12:35:54.001Z,94876.98
2019-05-25T12:38:20.705Z,94871.49
2019-05-25T12:40:53.463Z,94872.37
2019-05-25T12:43:17.453Z,94868.80
2019-05-25T12:45:44.876Z,94865.06
2019-05-25T12:48:11.865Z,94860.58
2019-05-25T12:50:38.620Z,94853.20
2019-05-25T12:53:05.348Z,94854.46
2019-05-25T12:55:32.175Z,94849.23
2019-05-25T12:57:58.989Z,94854.61
2019-05-25T13:00:25.704Z,94854.38
2019-05-25T13:02:52.722Z,94852.07
2019-05-25T13:05:32.882Z,94847.93
2019-05-25T13:07:48.350Z,94850.19
2019-05-25T13:10:15.247Z,94847.66
2019-05-25T13:12:41.935Z,94840.03
2019-05-25T13:15:08.711Z,94837.70
2019-05-25T13:17:35.757Z,94842.20
2019-05-25T13:20:05.227Z,94843.75
2019-05-25T13:22:31.961Z,94838.85
2019-05-25T13:24:58.796Z,94835.25
2019-05-25T13:27:25.531Z,94838.25
2019-05-25T13:29:52.280Z,94832.69
2019-05-25T13:32:19.068Z,94844.52
2019-05-25T13:34:46.901Z,94838.44
2019-05-25T13:37:13.860Z,94837.98
2019-05-25T13:39:40.556Z,94840.37
2019-05-25T13:42:07.261Z,94834.06
2019-05-25T13:44:34.144Z,94838.92
2019-05-25T13:47:00.913Z,94832.97
2019-05-25T13:49:27.751Z,94829.11
2019-05-25T13:51:54.473Z,94826.37
2019-05-25T13:54:21.240Z,94822.43
2019-05-25T13:56:47.907Z,94823.80
2019-05-25T13:59:14.588Z,94826.71
2019-05-25T14:01:41.352Z,94817.98
2019-05-25T14:04:08.139Z,94825.25
2019-05-25T14:06:34.819Z,94833.63
2019-05-25T14:09:01.510Z,94836.17
2019-05-25T14:11:29.864Z,94825.92
2019-05-25T14:13:56.709Z,94828.98
2019-05-25T14:16:23.413Z,94831.84
2019-05-25T14:18:50.215Z,94839.73
2019-05-25T14:21:16.876Z,94834.66
2019-05-25T14:23:43.743Z,94842.30
2019-05-25T14:26:10.452Z,94844.81
2019-05-25T14:28:37.223Z,94842.73
2019-05-25T14:31:04.030Z,94838.75
2019-05-25T14:33:30.757Z,94833.64
2019-05-25T14:35:57.523Z,94838.83
2019-05-25T14:38:24.412Z,94833.52
2019-05-25T14:40:51.174Z,94834.07
2019-05-25T14:43:17.876Z,94820.81
2019-05-25T14:45:44.640Z,94829.59
2019-05-25T14:48:11.403Z,94832.00
2019-05-25T14:50:38.102Z,94828.20
2019-05-25T14:53:04.859Z,94828.94
2019-05-25T14:55:31.635Z,94829.64
2019-05-25T14:57:58.361Z,94820.46
2019-05-25T15:00:25.249Z,94828.67
2019-05-25T15:02:51.971Z,94827.48
2019-05-25T15:05:18.755Z,94825.79
2019-05-25T15:07:45.572Z,94825.19
2019-05-25T15:10:13.013Z,94821.58
2019-05-25T15:12:39.727Z,94826.80
2019-05-25T15:15:07.408Z,94819.47
2019-05-25T15:17:37.143Z,94826.97
2019-05-25T15:20:08.096Z,94835.87
2019-05-25T15:22:34.804Z,94833.09
2019-05-25T15:25:05.241Z,94834.52
2019-05-25T15:27:32.142Z,94828.97
2019-05-25T15:29:58.944Z,94835.58
2019-05-25T15:32:25.723Z,94835.94
2019-05-25T15:34:52.482Z,94844.45
2019-05-25T15:37:19.165Z,94838.33
2019-05-25T15:39:45.959Z,94844.78
2019-05-25T15:42:12.778Z,94844.58
2019-05-25T15:44:39.516Z,94833.55
2019-05-25T15:47:06.200Z,94842.41
2019-05-25T15:49:33.859Z,94843.59
2019-05-25T15:52:00.754Z,94838.32
2019-05-25T15:54:27.549Z,94843.84
2019-05-25T15:56:54.324Z,94840.30
2019-05-25T15:59:23.472Z,94846.59
2019-05-25T16:01:51.035Z,94841.09
2019-05-25T16:04:17.959Z,94854.48
2019-05-25T16:06:44.953Z,94844.98
2019-05-25T16:09:12.841Z,94846.78
2019-05-25T16:11:39.741Z,94842.56
2019-05-25T16:14:07.951Z,94843.05
2019-05-25T16:16:34.990Z,94847.03
2019-05-25T16:19:01.925Z,94847.94
2019-05-25T16:21:28.708Z,94847.97
2019-05-25T16:23:55.494Z,94844.66
2019-05-25T16:26:22.282Z,94856.08
2019-05-25T16:28:49.202Z,94846.48
2019-05-25T16:31:15.993Z,94853.33
2019-05-25T16:33:42.769Z,94860.53
2019-05-25T16:36:09.530Z,94858.70
2019-05-25T16:38:36.198Z,94860.66
2019-05-25T16:41:03.425Z,94863.52
2019-05-25T16:43:30.087Z,94866.96
2019-05-25T16:45:56.974Z,94869.59
2019-05-25T16:48:23.737Z,94874.19
2019-05-25T16:50:50.413Z,94868.09
2019-05-25T16:53:17.286Z,94872.67
2019-05-25T16:55:44.038Z,94870.48
2019-05-25T16:58:10.830Z,94875.41
2019-05-25T17:00:39.344Z,94879.05
2019-05-25T17:03:07.279Z,94881.34
2019-05-25T17:05:34.064Z,94873.80
2019-05-25T17:08:00.950Z,94881.56
2019-05-25T17:10:27.873Z,94882.41
2019-05-25T17:12:54.701Z,94884.47
2019-05-25T17:15:21.501Z,94883.92
2019-05-25T17:17:49.391Z,94878.59
2019-05-25T17:20:16.497Z,94885.72
2019-05-25T17:22:44.214Z,94884.14
2019-05-25T17:25:11.388Z,94882.35
2019-05-25T17:27:38.167Z,94887.61
2019-05-25T17:30:07.118Z,94879.07
2019-05-25T17:32:33.986Z,94886.61
2019-05-25T17:35:00.860Z,94887.55
2019-05-25T17:37:27.717Z,94894.54
2019-05-25T17:39:54.455Z,94894.22
2019-05-25T17:42:21.278Z,94896.25
2019-05-25T17:44:48.153Z,94902.77
2019-05-25T17:47:14.944Z,94902.22
2019-05-25T17:49:41.685Z,94907.64
2019-05-25T17:52:08.504Z,94911.21
2019-05-25T17:54:35.285Z,94912.75
2019-05-25T17:57:02.251Z,94919.28
2019-05-25T17:59:29.021Z,94917.42
2019-05-25T18:01:56.860Z,94923.41
2019-05-25T18:04:23.804Z,94923.07
2019-05-25T18:06:50.536Z,94918.15
2019-05-25T18:09:17.511Z,94927.30
2019-05-25T18:11:44.433Z,94929.75
2019-05-25T18:14:11.180Z,94931.42
2019-05-25T18:16:37.944Z,94929.34
2019-05-25T18:19:04.937Z,94935.44
2019-05-25T18:21:31.625Z,94940.86
2019-05-25T18:23:58.441Z,94939.08
2019-05-25T18:26:25.255Z,94939.56
2019-05-25T18:28:53.119Z,94950.57
2019-05-25T18:31:20.811Z,94959.73
2019-05-25T18:33:47.571Z,94956.45
2019-05-25T18:36:14.473Z,94954.41
2019-05-25T18:38:41.260Z,94955.03
2019-05-25T18:41:08.033Z,94965.94
2019-05-25T18:43:34.794Z,94969.47
2019-05-25T18:46:02.696Z,94976.55
2019-05-25T18:48:29.438Z,94992.33
2019-05-25T18:50:56.129Z,94983.48
2019-05-25T18:53:22.795Z,94987.87
2019-05-25T18:55:49.600Z,94992.52
2019-05-25T18:58:16.387Z,94996.94
2019-05-25T19:00:43.122Z,94997.78
2019-05-25T19:03:09.849Z,95001.73
2019-05-25T19:05:36.622Z,95001.20
2019-05-25T19:08:03.649Z,95009.91
2019-05-25T19:10:30.472Z,95010.85
2019-05-25T19:12:58.219Z,95014.25
2019-05-25T19:15:25.098Z,95013.95
2019-05-25T19:17:51.809Z,95014.62
2019-05-25T19:20:21.171Z,95022.06
2019-05-25T19:22:48.104Z,95016.94
2019-05-25T19:25:15.310Z,95023.13
2019-05-25T19:27:42.084Z,95021.03
2019-05-25T19:30:10.182Z,95019.47
2019-05-25T19:32:37.022Z,95024.16
2019-05-25T19:35:04.874Z,95031.11
2019-05-25T19:37:31.736Z,95036.63
2019-05-25T19:39:59.072Z,95040.02
2019-05-25T19:42:25.746Z,95042.72
2019-05-25T19:44:52.529Z,95045.38
2019-05-25T19:47:19.209Z,95040.66
2019-05-25T19:49:45.947Z,95037.49
2019-05-25T19:52:12.770Z,95045.20
2019-05-25T19:54:39.506Z,95040.33
2019-05-25T19:57:06.275Z,95043.67
2019-05-25T19:59:33.196Z,95047.59
2019-05-25T20:02:00.076Z,95043.98
2019-05-25T20:04:26.753Z,95044.94
2019-05-25T20:06:53.569Z,95046.33
2019-05-25T20:09:20.357Z,95054.07
2019-05-25T20:11:47.171Z,95058.22
2019-05-25T20:14:13.929Z,95058.07
2019-05-25T20:16:40.605Z,95060.64
2019-05-25T20:19:07.374Z,95048.77
2019-05-25T20:21:34.255Z,95055.56
2019-05-25T20:24:01.030Z,95054.11
2019-05-25T20:26:27.765Z,95051.95
2019-05-25T20:28:54.519Z,95055.64
2019-05-25T20:31:21.205Z,95055.29
2019-05-25T20:33:48.013Z,95061.87
2019-05-25T20:36:14.787Z,95063.30
2019-05-25T20:38:41.575Z,95061.00
2019-05-25T20:41:08.249Z,95061.05
2019-05-25T20:43:35.214Z,95056.41
2019-05-25T20:46:01.910Z,95048.26
2019-05-25T20:48:31.967Z,95048.13
2019-05-25T20:50:58.809Z,95042.06
2019-05-25T20:53:25.517Z,95043.06
2019-05-25T20:55:52.236Z,95051.47
2019-05-25T20:58:19.005Z,95047.39
2019-05-25T21:00:45.786Z,95050.33
2019-05-25T21:03:12.598Z,95057.38
2019-05-25T21:05:49.808Z,95065.12
2019-05-25T21:08:08.118Z,95064.56
2019-05-25T21:10:34.983Z,95066.34
2019-05-25T21:13:01.825Z,95071.45
2019-05-25T21:15:28.600Z,95069.59
2019-05-25T21:17:55.308Z,95075.63
2019-05-25T21:20:22.385Z,95078.53
2019-05-25T21:22:49.081Z,95077.78
2019-05-25T21:25:15.991Z,95076.61
2019-05-25T21:27:42.837Z,95070.75
2019-05-25T21:30:09.821Z,95067.80
2019-05-25T21:32:36.588Z,95075.48
2019-05-25T21:35:04.960Z,95079.80
2019-05-25T21:37:31.662Z,95080.60
2019-05-25T21:39:58.401Z,95077.22
2019-05-25T21:42:25.260Z,95080.11
2019-05-25T21:44:51.952Z,95077.17
2019-05-25T21:47:18.726Z,95077.48
2019-05-25T21:49:45.484Z,95076.28
2019-05-25T21:52:12.183Z,95074.99
2019-05-25T21:54:38.874Z,95076.02
2019-05-25T21:57:05.661Z,95070.43
2019-05-25T21:59:32.828Z,95070.72
2019-05-25T22:01:59.760Z,95075.34
2019-05-25T22:04:26.511Z,95073.53
2019-05-25T22:06:53.312Z,95068.68
2019-05-25T22:09:20.026Z,95075.67
2019-05-25T22:11:46.921Z,95072.95
2019-05-25T22:14:13.665Z,95067.84
2019-05-25T22:16:40.365Z,95071.41
2019-05-25T22:19:07.381Z,95064.84
2019-05-25T22:21:34.265Z,95070.78
2019-05-25T22:24:01.027Z,95063.51
2019-05-25T22:26:27.907Z,95067.03
2019-05-25T22:28:54.681Z,95071.91
2019-05-25T22:31:21.472Z,95070.72
2019-05-25T22:33:48.192Z,95072.12
2019-05-25T22:36:14.983Z,95076.75
2019-05-25T22:38:41.770Z,95078.76
2019-05-25T22:41:08.608Z,95079.19
2019-05-25T22:43:35.399Z,95085.11
2019-05-25T22:46:02.096Z,95086.90
2019-05-25T22:48:28.882Z,95087.11
2019-05-25T22:50:55.657Z,95081.79
2019-05-25T22:53:22.661Z,95084.03
2019-05-25T22:55:49.488Z,95077.34
2019-05-25T22:58:16.182Z,95080.23
2019-05-25T23:00:42.908Z,95082.42
2019-05-25T23:03:09.775Z,95083.02
2019-05-25T23:05:36.541Z,95078.39
2019-05-25T23:08:03.454Z,95082.98
2019-05-25T23:10:30.280Z,95083.69
2019-05-25T23:12:57.048Z,95079.66
2019-05-25T23:15:23.746Z,95079.27
2019-05-25T23:17:50.578Z,95082.37
2019-05-25T23:20:17.744Z,95080.56
2019-05-25T23:22:45.781Z,95086.69
2019-05-25T23:25:13.190Z,95087.48
2019-05-25T23:27:39.884Z,95086.48
2019-05-25T23:30:06.995Z,95083.73
2019-05-25T23:32:34.348Z,95082.05
2019-05-25T23:35:01.122Z,95087.28
2019-05-25T23:37:27.960Z,95084.98
2019-05-25T23:39:54.639Z,95080.80
2019-05-25T23:42:21.392Z,95079.48
2019-05-25T23:44:48.200Z,95084.42
2019-05-25T23:47:14.906Z,95078.44
2019-05-25T23:49:41.824Z,95084.46
2019-05-25T23:52:08.626Z,95083.34
2019-05-25T23:54:35.558Z,95077.36
2019-05-25T23:57:02.860Z,95080.95
2019-05-25T23:59:29.605Z,95084.73
